sensor_id;sensor_type;location;lat;lon;timestamp;P1;durP1;ratioP1;P2;durP2;ratioP2
11121;SDS011;5615;49.304;10.576;2024-03-25T00:01:27;7.90;;;5.43;;
11121;SDS011;5615;49.304;10.576;2024-03-25T00:03:56;7.97;;;5.27;;
11121;SDS011;5615;49.304;10.576;2024-03-25T00:06:24;11.77;;;5.53;;
11121;SDS011;5615;49.304;10.576;2024-03-25T00:08:51;10.83;;;5.90;;
11121;SDS011;5615;49.304;10.576;2024-03-25T00:11:18;9.33;;;5.93;;
11121;SDS011;5615;49.304;10.576;2024-03-25T00:13:45;9.43;;;5.77;;
11121;SDS011;5615;49.304;10.576;2024-03-25T00:16:12;6.43;;;5.70;;
11121;SDS011;5615;49.304;10.576;2024-03-25T00:21:40;5.93;;;5.07;;
11121;SDS011;5615;49.304;10.576;2024-03-25T00:24:07;8.13;;;5.77;;
11121;SDS011;5615;49.304;10.576;2024-03-25T00:26:34;8.80;;;6.23;;
11121;SDS011;5615;49.304;10.576;2024-03-25T00:29:01;8.43;;;6.37;;
11121;SDS011;5615;49.304;10.576;2024-03-25T00:31:28;7.93;;;5.83;;
11121;SDS011;5615;49.304;10.576;2024-03-25T00:33:54;7.47;;;5.40;;
11121;SDS011;5615;49.304;10.576;2024-03-25T00:36:23;6.77;;;5.73;;
11121;SDS011;5615;49.304;10.576;2024-03-25T00:38:49;6.57;;;5.03;;
11121;SDS011;5615;49.304;10.576;2024-03-25T00:41:16;8.43;;;5.23;;
11121;SDS011;5615;49.304;10.576;2024-03-25T00:43:47;7.20;;;5.50;;
11121;SDS011;5615;49.304;10.576;2024-03-25T00:46:18;10.40;;;5.67;;
11121;SDS011;5615;49.304;10.576;2024-03-25T00:48:44;8.33;;;5.60;;
11121;SDS011;5615;49.304;10.576;2024-03-25T00:51:11;8.50;;;5.37;;
11121;SDS011;5615;49.304;10.576;2024-03-25T00:53:39;8.63;;;5.63;;
11121;SDS011;5615;49.304;10.576;2024-03-25T00:56:14;6.77;;;5.23;;
11121;SDS011;5615;49.304;10.576;2024-03-25T00:58:41;10.07;;;5.47;;
11121;SDS011;5615;49.304;10.576;2024-03-25T01:01:08;7.87;;;5.40;;
11121;SDS011;5615;49.304;10.576;2024-03-25T01:03:34;7.27;;;5.20;;
11121;SDS011;5615;49.304;10.576;2024-03-25T01:06:01;9.50;;;6.40;;
11121;SDS011;5615;49.304;10.576;2024-03-25T01:08:27;8.90;;;5.87;;
11121;SDS011;5615;49.304;10.576;2024-03-25T01:10:56;7.03;;;5.43;;
11121;SDS011;5615;49.304;10.576;2024-03-25T01:13:22;7.80;;;5.77;;
11121;SDS011;5615;49.304;10.576;2024-03-25T01:15:49;7.07;;;5.17;;
11121;SDS011;5615;49.304;10.576;2024-03-25T01:18:16;8.63;;;5.97;;
11121;SDS011;5615;49.304;10.576;2024-03-25T01:20:43;9.63;;;5.90;;
11121;SDS011;5615;49.304;10.576;2024-03-25T01:23:09;9.67;;;5.87;;
11121;SDS011;5615;49.304;10.576;2024-03-25T01:25:37;8.33;;;5.80;;
11121;SDS011;5615;49.304;10.576;2024-03-25T01:30:52;9.07;;;5.70;;
11121;SDS011;5615;49.304;10.576;2024-03-25T01:33:18;10.97;;;6.73;;
11121;SDS011;5615;49.304;10.576;2024-03-25T01:35:46;7.77;;;5.77;;
11121;SDS011;5615;49.304;10.576;2024-03-25T01:38:12;9.30;;;6.20;;
11121;SDS011;5615;49.304;10.576;2024-03-25T01:40:40;9.33;;;6.07;;
11121;SDS011;5615;49.304;10.576;2024-03-25T01:43:06;8.00;;;5.63;;
11121;SDS011;5615;49.304;10.576;2024-03-25T01:45:36;7.13;;;5.30;;
11121;SDS011;5615;49.304;10.576;2024-03-25T01:48:03;10.23;;;6.07;;
11121;SDS011;5615;49.304;10.576;2024-03-25T01:50:33;7.80;;;5.90;;
11121;SDS011;5615;49.304;10.576;2024-03-25T01:53:03;8.00;;;6.13;;
11121;SDS011;5615;49.304;10.576;2024-03-25T01:55:30;9.27;;;6.37;;
11121;SDS011;5615;49.304;10.576;2024-03-25T01:57:59;8.93;;;6.47;;
11121;SDS011;5615;49.304;10.576;2024-03-25T02:00:27;11.83;;;6.77;;
11121;SDS011;5615;49.304;10.576;2024-03-25T02:02:55;10.00;;;6.60;;
11121;SDS011;5615;49.304;10.576;2024-03-25T02:05:23;10.20;;;6.67;;
11121;SDS011;5615;49.304;10.576;2024-03-25T02:07:50;9.17;;;6.73;;
11121;SDS011;5615;49.304;10.576;2024-03-25T02:10:18;9.77;;;7.00;;
11121;SDS011;5615;49.304;10.576;2024-03-25T02:12:45;9.13;;;6.97;;
11121;SDS011;5615;49.304;10.576;2024-03-25T02:15:13;10.00;;;7.07;;
11121;SDS011;5615;49.304;10.576;2024-03-25T02:17:39;11.77;;;7.20;;
11121;SDS011;5615;49.304;10.576;2024-03-25T02:20:10;11.57;;;7.13;;
11121;SDS011;5615;49.304;10.576;2024-03-25T02:22:40;10.30;;;6.47;;
11121;SDS011;5615;49.304;10.576;2024-03-25T02:25:08;9.50;;;6.80;;
11121;SDS011;5615;49.304;10.576;2024-03-25T02:27:36;12.20;;;7.70;;
11121;SDS011;5615;49.304;10.576;2024-03-25T02:30:04;13.93;;;6.77;;
11121;SDS011;5615;49.304;10.576;2024-03-25T02:32:32;9.50;;;6.50;;
11121;SDS011;5615;49.304;10.576;2024-03-25T02:35:00;11.40;;;6.80;;
11121;SDS011;5615;49.304;10.576;2024-03-25T02:37:29;11.00;;;6.77;;
11121;SDS011;5615;49.304;10.576;2024-03-25T02:39:57;11.27;;;7.57;;
11121;SDS011;5615;49.304;10.576;2024-03-25T02:42:31;11.27;;;7.47;;
11121;SDS011;5615;49.304;10.576;2024-03-25T02:45:00;9.53;;;7.03;;
11121;SDS011;5615;49.304;10.576;2024-03-25T02:47:27;12.07;;;7.63;;
11121;SDS011;5615;49.304;10.576;2024-03-25T02:49:55;13.07;;;7.50;;
11121;SDS011;5615;49.304;10.576;2024-03-25T02:52:21;14.40;;;7.53;;
11121;SDS011;5615;49.304;10.576;2024-03-25T02:54:54;12.97;;;7.20;;
11121;SDS011;5615;49.304;10.576;2024-03-25T02:57:21;11.43;;;7.70;;
11121;SDS011;5615;49.304;10.576;2024-03-25T02:59:54;13.33;;;8.00;;
11121;SDS011;5615;49.304;10.576;2024-03-25T03:02:21;12.57;;;8.17;;
11121;SDS011;5615;49.304;10.576;2024-03-25T03:04:48;15.27;;;8.33;;
11121;SDS011;5615;49.304;10.576;2024-03-25T03:07:15;11.80;;;8.37;;
11121;SDS011;5615;49.304;10.576;2024-03-25T03:09:43;14.20;;;8.13;;
11121;SDS011;5615;49.304;10.576;2024-03-25T03:12:09;12.23;;;7.67;;
11121;SDS011;5615;49.304;10.576;2024-03-25T03:14:36;11.97;;;7.93;;
11121;SDS011;5615;49.304;10.576;2024-03-25T03:17:02;13.90;;;7.97;;
11121;SDS011;5615;49.304;10.576;2024-03-25T03:19:32;12.33;;;8.43;;
11121;SDS011;5615;49.304;10.576;2024-03-25T03:21:58;11.70;;;7.97;;
11121;SDS011;5615;49.304;10.576;2024-03-25T03:24:25;12.30;;;8.10;;
11121;SDS011;5615;49.304;10.576;2024-03-25T03:27:02;10.80;;;8.37;;
11121;SDS011;5615;49.304;10.576;2024-03-25T03:29:29;11.80;;;7.93;;
11121;SDS011;5615;49.304;10.576;2024-03-25T03:31:55;11.83;;;8.37;;
11121;SDS011;5615;49.304;10.576;2024-03-25T03:34:22;10.93;;;7.63;;
11121;SDS011;5615;49.304;10.576;2024-03-25T03:36:52;10.77;;;7.70;;
11121;SDS011;5615;49.304;10.576;2024-03-25T03:39:19;12.53;;;8.13;;
11121;SDS011;5615;49.304;10.576;2024-03-25T03:41:47;10.93;;;7.50;;
11121;SDS011;5615;49.304;10.576;2024-03-25T03:44:14;18.63;;;8.07;;
11121;SDS011;5615;49.304;10.576;2024-03-25T03:46:40;11.20;;;8.03;;
11121;SDS011;5615;49.304;10.576;2024-03-25T03:49:07;12.83;;;7.97;;
11121;SDS011;5615;49.304;10.576;2024-03-25T03:51:33;11.53;;;7.73;;
11121;SDS011;5615;49.304;10.576;2024-03-25T03:54:02;12.33;;;8.10;;
11121;SDS011;5615;49.304;10.576;2024-03-25T03:56:28;13.17;;;8.47;;
11121;SDS011;5615;49.304;10.576;2024-03-25T03:58:56;12.97;;;7.93;;
11121;SDS011;5615;49.304;10.576;2024-03-25T04:01:22;11.93;;;7.67;;
11121;SDS011;5615;49.304;10.576;2024-03-25T04:03:51;13.23;;;7.50;;
11121;SDS011;5615;49.304;10.576;2024-03-25T04:06:17;10.30;;;7.53;;
11121;SDS011;5615;49.304;10.576;2024-03-25T04:08:45;13.00;;;8.87;;
11121;SDS011;5615;49.304;10.576;2024-03-25T04:11:12;14.63;;;8.43;;
11121;SDS011;5615;49.304;10.576;2024-03-25T04:13:41;13.83;;;7.70;;
11121;SDS011;5615;49.304;10.576;2024-03-25T04:16:07;10.67;;;8.20;;
11121;SDS011;5615;49.304;10.576;2024-03-25T04:18:35;11.07;;;7.70;;
11121;SDS011;5615;49.304;10.576;2024-03-25T04:21:02;9.80;;;8.07;;
11121;SDS011;5615;49.304;10.576;2024-03-25T04:23:29;13.67;;;8.90;;
11121;SDS011;5615;49.304;10.576;2024-03-25T04:25:55;12.27;;;8.33;;
11121;SDS011;5615;49.304;10.576;2024-03-25T04:28:33;13.23;;;9.10;;
11121;SDS011;5615;49.304;10.576;2024-03-25T04:30:59;16.97;;;9.27;;
11121;SDS011;5615;49.304;10.576;2024-03-25T04:33:27;12.07;;;8.90;;
11121;SDS011;5615;49.304;10.576;2024-03-25T04:35:54;14.20;;;8.53;;
11121;SDS011;5615;49.304;10.576;2024-03-25T04:38:22;14.50;;;9.30;;
11121;SDS011;5615;49.304;10.576;2024-03-25T04:40:49;13.20;;;8.67;;
11121;SDS011;5615;49.304;10.576;2024-03-25T04:43:15;11.30;;;8.77;;
11121;SDS011;5615;49.304;10.576;2024-03-25T04:45:43;20.70;;;9.67;;
11121;SDS011;5615;49.304;10.576;2024-03-25T04:48:09;14.83;;;9.13;;
11121;SDS011;5615;49.304;10.576;2024-03-25T04:50:36;15.83;;;9.53;;
11121;SDS011;5615;49.304;10.576;2024-03-25T04:53:02;15.43;;;9.97;;
11121;SDS011;5615;49.304;10.576;2024-03-25T04:55:29;13.27;;;9.17;;
11121;SDS011;5615;49.304;10.576;2024-03-25T04:58:00;20.40;;;10.40;;
11121;SDS011;5615;49.304;10.576;2024-03-25T05:00:26;14.73;;;9.60;;
11121;SDS011;5615;49.304;10.576;2024-03-25T05:02:54;15.23;;;9.87;;
11121;SDS011;5615;49.304;10.576;2024-03-25T05:05:20;19.93;;;9.87;;
11121;SDS011;5615;49.304;10.576;2024-03-25T05:07:50;12.17;;;8.77;;
11121;SDS011;5615;49.304;10.576;2024-03-25T05:10:16;17.27;;;9.97;;
11121;SDS011;5615;49.304;10.576;2024-03-25T05:12:43;15.87;;;9.80;;
11121;SDS011;5615;49.304;10.576;2024-03-25T05:15:09;12.53;;;8.97;;
11121;SDS011;5615;49.304;10.576;2024-03-25T05:17:35;12.80;;;9.80;;
11121;SDS011;5615;49.304;10.576;2024-03-25T05:20:04;13.33;;;9.13;;
11121;SDS011;5615;49.304;10.576;2024-03-25T05:22:30;13.00;;;8.80;;
11121;SDS011;5615;49.304;10.576;2024-03-25T05:24:56;11.93;;;9.03;;
11121;SDS011;5615;49.304;10.576;2024-03-25T05:27:23;13.57;;;9.33;;
11121;SDS011;5615;49.304;10.576;2024-03-25T05:29:50;15.73;;;9.23;;
11121;SDS011;5615;49.304;10.576;2024-03-25T05:32:16;16.97;;;9.53;;
11121;SDS011;5615;49.304;10.576;2024-03-25T05:34:43;15.70;;;8.90;;
11121;SDS011;5615;49.304;10.576;2024-03-25T05:37:11;13.43;;;8.87;;
11121;SDS011;5615;49.304;10.576;2024-03-25T05:39:46;12.97;;;8.30;;
11121;SDS011;5615;49.304;10.576;2024-03-25T05:42:13;17.00;;;9.13;;
11121;SDS011;5615;49.304;10.576;2024-03-25T05:44:39;13.23;;;9.13;;
11121;SDS011;5615;49.304;10.576;2024-03-25T05:47:05;14.20;;;8.80;;
11121;SDS011;5615;49.304;10.576;2024-03-25T05:49:32;12.67;;;8.93;;
11121;SDS011;5615;49.304;10.576;2024-03-25T05:51:58;23.40;;;14.77;;
11121;SDS011;5615;49.304;10.576;2024-03-25T05:54:26;24.90;;;17.33;;
11121;SDS011;5615;49.304;10.576;2024-03-25T05:56:52;43.20;;;29.23;;
11121;SDS011;5615;49.304;10.576;2024-03-25T05:59:19;16.07;;;10.60;;
11121;SDS011;5615;49.304;10.576;2024-03-25T06:01:50;12.10;;;10.13;;
11121;SDS011;5615;49.304;10.576;2024-03-25T06:04:19;13.67;;;9.40;;
11121;SDS011;5615;49.304;10.576;2024-03-25T06:06:45;16.37;;;11.63;;
11121;SDS011;5615;49.304;10.576;2024-03-25T06:09:11;14.37;;;9.13;;
11121;SDS011;5615;49.304;10.576;2024-03-25T06:11:39;15.03;;;8.73;;
11121;SDS011;5615;49.304;10.576;2024-03-25T06:14:05;10.87;;;8.47;;
11121;SDS011;5615;49.304;10.576;2024-03-25T06:16:32;13.43;;;8.83;;
11121;SDS011;5615;49.304;10.576;2024-03-25T06:18:58;13.43;;;9.20;;
11121;SDS011;5615;49.304;10.576;2024-03-25T06:21:24;13.83;;;9.23;;
11121;SDS011;5615;49.304;10.576;2024-03-25T06:23:51;12.37;;;8.50;;
11121;SDS011;5615;49.304;10.576;2024-03-25T06:26:17;13.90;;;8.53;;
11121;SDS011;5615;49.304;10.576;2024-03-25T06:28:44;11.93;;;7.90;;
11121;SDS011;5615;49.304;10.576;2024-03-25T06:31:10;9.60;;;7.17;;
11121;SDS011;5615;49.304;10.576;2024-03-25T06:33:55;9.53;;;7.17;;
11121;SDS011;5615;49.304;10.576;2024-03-25T06:36:39;12.47;;;6.40;;
11121;SDS011;5615;49.304;10.576;2024-03-25T06:39:05;13.27;;;7.53;;
11121;SDS011;5615;49.304;10.576;2024-03-25T06:41:32;12.83;;;7.63;;
11121;SDS011;5615;49.304;10.576;2024-03-25T06:44:01;8.33;;;6.70;;
11121;SDS011;5615;49.304;10.576;2024-03-25T06:46:27;15.33;;;7.10;;
11121;SDS011;5615;49.304;10.576;2024-03-25T06:48:53;9.47;;;6.63;;
11121;SDS011;5615;49.304;10.576;2024-03-25T06:51:23;11.23;;;6.77;;
11121;SDS011;5615;49.304;10.576;2024-03-25T06:53:49;10.00;;;6.40;;
11121;SDS011;5615;49.304;10.576;2024-03-25T06:56:17;15.13;;;6.10;;
11121;SDS011;5615;49.304;10.576;2024-03-25T06:58:47;9.53;;;6.73;;
11121;SDS011;5615;49.304;10.576;2024-03-25T07:01:15;10.40;;;6.40;;
11121;SDS011;5615;49.304;10.576;2024-03-25T07:03:42;13.00;;;6.90;;
11121;SDS011;5615;49.304;10.576;2024-03-25T07:06:08;14.57;;;6.70;;
11121;SDS011;5615;49.304;10.576;2024-03-25T07:08:34;10.60;;;6.37;;
11121;SDS011;5615;49.304;10.576;2024-03-25T07:11:03;10.43;;;6.93;;
11121;SDS011;5615;49.304;10.576;2024-03-25T07:13:31;14.13;;;7.57;;
11121;SDS011;5615;49.304;10.576;2024-03-25T07:16:02;8.80;;;6.50;;
11121;SDS011;5615;49.304;10.576;2024-03-25T07:18:30;12.20;;;6.90;;
11121;SDS011;5615;49.304;10.576;2024-03-25T07:21:03;9.00;;;5.77;;
11121;SDS011;5615;49.304;10.576;2024-03-25T07:23:29;10.45;;;6.10;;
11121;SDS011;5615;49.304;10.576;2024-03-25T07:25:55;8.37;;;6.27;;
11121;SDS011;5615;49.304;10.576;2024-03-25T07:28:21;8.47;;;6.07;;
11121;SDS011;5615;49.304;10.576;2024-03-25T07:30:49;10.07;;;6.23;;
11121;SDS011;5615;49.304;10.576;2024-03-25T07:33:15;10.07;;;6.27;;
11121;SDS011;5615;49.304;10.576;2024-03-25T07:35:42;7.43;;;5.20;;
11121;SDS011;5615;49.304;10.576;2024-03-25T07:38:09;8.57;;;5.63;;
11121;SDS011;5615;49.304;10.576;2024-03-25T07:40:35;11.57;;;5.57;;
11121;SDS011;5615;49.304;10.576;2024-03-25T07:43:01;6.97;;;4.70;;
11121;SDS011;5615;49.304;10.576;2024-03-25T07:45:27;5.67;;;4.77;;
11121;SDS011;5615;49.304;10.576;2024-03-25T07:47:53;6.50;;;5.10;;
11121;SDS011;5615;49.304;10.576;2024-03-25T07:50:19;9.37;;;4.80;;
11121;SDS011;5615;49.304;10.576;2024-03-25T07:52:49;7.77;;;3.90;;
11121;SDS011;5615;49.304;10.576;2024-03-25T07:55:15;6.03;;;4.40;;
11121;SDS011;5615;49.304;10.576;2024-03-25T07:57:41;5.73;;;4.47;;
11121;SDS011;5615;49.304;10.576;2024-03-25T08:00:07;7.17;;;4.63;;
11121;SDS011;5615;49.304;10.576;2024-03-25T08:02:34;9.73;;;5.10;;
11121;SDS011;5615;49.304;10.576;2024-03-25T08:05:00;6.97;;;5.13;;
11121;SDS011;5615;49.304;10.576;2024-03-25T08:07:26;5.63;;;4.40;;
11121;SDS011;5615;49.304;10.576;2024-03-25T08:09:55;7.93;;;4.40;;
11121;SDS011;5615;49.304;10.576;2024-03-25T08:12:23;7.87;;;4.90;;
11121;SDS011;5615;49.304;10.576;2024-03-25T08:14:48;10.13;;;5.53;;
11121;SDS011;5615;49.304;10.576;2024-03-25T08:17:14;8.70;;;4.50;;
11121;SDS011;5615;49.304;10.576;2024-03-25T08:19:40;6.87;;;4.40;;
11121;SDS011;5615;49.304;10.576;2024-03-25T08:22:06;8.67;;;4.63;;
11121;SDS011;5615;49.304;10.576;2024-03-25T08:24:33;7.17;;;4.10;;
11121;SDS011;5615;49.304;10.576;2024-03-25T08:27:05;7.10;;;3.37;;
11121;SDS011;5615;49.304;10.576;2024-03-25T08:29:31;5.17;;;3.60;;
11121;SDS011;5615;49.304;10.576;2024-03-25T08:31:57;7.37;;;3.97;;
11121;SDS011;5615;49.304;10.576;2024-03-25T08:34:23;5.60;;;3.60;;
11121;SDS011;5615;49.304;10.576;2024-03-25T08:36:48;6.43;;;3.70;;
11121;SDS011;5615;49.304;10.576;2024-03-25T08:39:14;6.30;;;3.93;;
11121;SDS011;5615;49.304;10.576;2024-03-25T08:41:40;5.93;;;4.10;;
11121;SDS011;5615;49.304;10.576;2024-03-25T08:44:10;7.43;;;3.97;;
11121;SDS011;5615;49.304;10.576;2024-03-25T08:46:35;8.23;;;4.57;;
11121;SDS011;5615;49.304;10.576;2024-03-25T08:49:01;5.37;;;3.70;;
11121;SDS011;5615;49.304;10.576;2024-03-25T08:51:27;8.33;;;5.63;;
11121;SDS011;5615;49.304;10.576;2024-03-25T08:53:53;8.17;;;4.73;;
11121;SDS011;5615;49.304;10.576;2024-03-25T08:56:19;7.77;;;4.73;;
11121;SDS011;5615;49.304;10.576;2024-03-25T08:58:45;6.30;;;4.50;;
11121;SDS011;5615;49.304;10.576;2024-03-25T09:01:14;6.10;;;4.40;;
11121;SDS011;5615;49.304;10.576;2024-03-25T09:03:41;6.97;;;4.30;;
11121;SDS011;5615;49.304;10.576;2024-03-25T09:06:07;7.33;;;5.03;;
11121;SDS011;5615;49.304;10.576;2024-03-25T09:08:33;6.13;;;4.60;;
11121;SDS011;5615;49.304;10.576;2024-03-25T09:10:59;8.00;;;4.80;;
11121;SDS011;5615;49.304;10.576;2024-03-25T09:13:27;7.57;;;5.13;;
11121;SDS011;5615;49.304;10.576;2024-03-25T09:15:53;8.20;;;5.20;;
11121;SDS011;5615;49.304;10.576;2024-03-25T09:18:21;8.43;;;5.23;;
11121;SDS011;5615;49.304;10.576;2024-03-25T09:20:47;6.57;;;4.53;;
11121;SDS011;5615;49.304;10.576;2024-03-25T09:23:14;5.03;;;4.40;;
11121;SDS011;5615;49.304;10.576;2024-03-25T09:25:40;6.13;;;3.37;;
11121;SDS011;5615;49.304;10.576;2024-03-25T09:28:15;7.37;;;3.57;;
11121;SDS011;5615;49.304;10.576;2024-03-25T09:30:42;5.77;;;4.00;;
11121;SDS011;5615;49.304;10.576;2024-03-25T09:33:08;7.30;;;4.87;;
11121;SDS011;5615;49.304;10.576;2024-03-25T09:35:35;6.17;;;3.50;;
11121;SDS011;5615;49.304;10.576;2024-03-25T09:38:01;5.57;;;3.83;;
11121;SDS011;5615;49.304;10.576;2024-03-25T09:40:27;5.37;;;3.97;;
11121;SDS011;5615;49.304;10.576;2024-03-25T09:42:56;6.47;;;3.60;;
11121;SDS011;5615;49.304;10.576;2024-03-25T09:45:24;5.53;;;3.50;;
11121;SDS011;5615;49.304;10.576;2024-03-25T09:47:51;5.00;;;3.40;;
11121;SDS011;5615;49.304;10.576;2024-03-25T09:50:17;6.43;;;3.97;;
11121;SDS011;5615;49.304;10.576;2024-03-25T09:52:45;4.83;;;3.63;;
11121;SDS011;5615;49.304;10.576;2024-03-25T09:55:11;5.40;;;3.60;;
11121;SDS011;5615;49.304;10.576;2024-03-25T09:57:37;4.57;;;3.43;;
11121;SDS011;5615;49.304;10.576;2024-03-25T10:00:04;5.90;;;3.47;;
11121;SDS011;5615;49.304;10.576;2024-03-25T10:02:33;4.60;;;3.40;;
11121;SDS011;5615;49.304;10.576;2024-03-25T10:05:01;4.57;;;3.50;;
11121;SDS011;5615;49.304;10.576;2024-03-25T10:07:27;4.17;;;3.60;;
11121;SDS011;5615;49.304;10.576;2024-03-25T10:09:54;7.07;;;4.07;;
11121;SDS011;5615;49.304;10.576;2024-03-25T10:12:20;9.37;;;3.63;;
11121;SDS011;5615;49.304;10.576;2024-03-25T10:14:46;5.60;;;3.73;;
11121;SDS011;5615;49.304;10.576;2024-03-25T10:17:11;5.20;;;3.97;;
11121;SDS011;5615;49.304;10.576;2024-03-25T10:19:37;5.17;;;3.90;;
11121;SDS011;5615;49.304;10.576;2024-03-25T10:22:04;5.43;;;4.33;;
11121;SDS011;5615;49.304;10.576;2024-03-25T10:24:37;5.70;;;4.10;;
11121;SDS011;5615;49.304;10.576;2024-03-25T10:27:05;6.03;;;3.80;;
11121;SDS011;5615;49.304;10.576;2024-03-25T10:29:34;6.90;;;4.50;;
11121;SDS011;5615;49.304;10.576;2024-03-25T10:32:00;5.23;;;3.90;;
11121;SDS011;5615;49.304;10.576;2024-03-25T10:34:27;5.27;;;3.57;;
11121;SDS011;5615;49.304;10.576;2024-03-25T10:36:53;6.43;;;4.03;;
11121;SDS011;5615;49.304;10.576;2024-03-25T10:39:24;5.27;;;3.50;;
11121;SDS011;5615;49.304;10.576;2024-03-25T10:41:54;3.90;;;3.30;;
11121;SDS011;5615;49.304;10.576;2024-03-25T10:44:23;5.00;;;3.77;;
11121;SDS011;5615;49.304;10.576;2024-03-25T10:46:50;3.35;;;3.03;;
11121;SDS011;5615;49.304;10.576;2024-03-25T10:49:25;3.50;;;3.00;;
11121;SDS011;5615;49.304;10.576;2024-03-25T10:51:58;3.78;;;2.95;;
11121;SDS011;5615;49.304;10.576;2024-03-25T10:54:25;3.05;;;2.75;;
11121;SDS011;5615;49.304;10.576;2024-03-25T10:56:53;4.88;;;3.30;;
11121;SDS011;5615;49.304;10.576;2024-03-25T10:59:19;4.45;;;3.47;;
11121;SDS011;5615;49.304;10.576;2024-03-25T11:01:49;6.05;;;3.10;;
11121;SDS011;5615;49.304;10.576;2024-03-25T11:04:15;5.03;;;3.50;;
11121;SDS011;5615;49.304;10.576;2024-03-25T11:06:41;3.22;;;2.92;;
11121;SDS011;5615;49.304;10.576;2024-03-25T11:09:06;3.55;;;3.08;;
11121;SDS011;5615;49.304;10.576;2024-03-25T11:11:32;4.72;;;3.30;;
11121;SDS011;5615;49.304;10.576;2024-03-25T11:13:59;7.47;;;3.50;;
11121;SDS011;5615;49.304;10.576;2024-03-25T11:16:28;5.80;;;3.83;;
11121;SDS011;5615;49.304;10.576;2024-03-25T11:18:59;3.35;;;3.05;;
11121;SDS011;5615;49.304;10.576;2024-03-25T11:21:27;6.13;;;3.30;;
11121;SDS011;5615;49.304;10.576;2024-03-25T11:23:52;5.50;;;3.55;;
11121;SDS011;5615;49.304;10.576;2024-03-25T11:26:19;4.13;;;3.20;;
11121;SDS011;5615;49.304;10.576;2024-03-25T11:28:45;4.20;;;3.05;;
11121;SDS011;5615;49.304;10.576;2024-03-25T11:31:11;4.13;;;3.10;;
11121;SDS011;5615;49.304;10.576;2024-03-25T11:33:37;4.32;;;2.97;;
11121;SDS011;5615;49.304;10.576;2024-03-25T11:36:05;4.22;;;2.90;;
11121;SDS011;5615;49.304;10.576;2024-03-25T11:38:31;3.03;;;2.60;;
11121;SDS011;5615;49.304;10.576;2024-03-25T11:40:57;3.22;;;2.80;;
11121;SDS011;5615;49.304;10.576;2024-03-25T11:43:23;4.07;;;3.30;;
11121;SDS011;5615;49.304;10.576;2024-03-25T11:45:49;4.20;;;2.78;;
11121;SDS011;5615;49.304;10.576;2024-03-25T11:48:15;4.05;;;2.95;;
11121;SDS011;5615;49.304;10.576;2024-03-25T11:50:41;6.15;;;4.32;;
11121;SDS011;5615;49.304;10.576;2024-03-25T11:53:11;3.53;;;3.08;;
11121;SDS011;5615;49.304;10.576;2024-03-25T11:55:38;3.95;;;2.83;;
11121;SDS011;5615;49.304;10.576;2024-03-25T11:58:04;4.43;;;2.70;;
11121;SDS011;5615;49.304;10.576;2024-03-25T12:00:30;5.47;;;2.70;;
11121;SDS011;5615;49.304;10.576;2024-03-25T12:02:56;2.97;;;2.40;;
11121;SDS011;5615;49.304;10.576;2024-03-25T12:05:22;4.60;;;2.67;;
11121;SDS011;5615;49.304;10.576;2024-03-25T12:07:47;2.80;;;2.50;;
11121;SDS011;5615;49.304;10.576;2024-03-25T12:10:15;4.93;;;2.97;;
11121;SDS011;5615;49.304;10.576;2024-03-25T12:13:00;3.67;;;2.58;;
11121;SDS011;5615;49.304;10.576;2024-03-25T12:15:25;2.60;;;2.40;;
11121;SDS011;5615;49.304;10.576;2024-03-25T12:17:51;3.67;;;2.45;;
11121;SDS011;5615;49.304;10.576;2024-03-25T12:20:17;4.70;;;2.75;;
11121;SDS011;5615;49.304;10.576;2024-03-25T12:22:44;4.28;;;2.50;;
11121;SDS011;5615;49.304;10.576;2024-03-25T12:25:10;3.25;;;2.40;;
11121;SDS011;5615;49.304;10.576;2024-03-25T12:27:38;3.83;;;2.67;;
11121;SDS011;5615;49.304;10.576;2024-03-25T12:30:05;3.67;;;2.80;;
11121;SDS011;5615;49.304;10.576;2024-03-25T12:32:35;4.00;;;2.60;;
11121;SDS011;5615;49.304;10.576;2024-03-25T12:35:02;2.53;;;2.13;;
11121;SDS011;5615;49.304;10.576;2024-03-25T12:37:28;4.07;;;2.50;;
11121;SDS011;5615;49.304;10.576;2024-03-25T12:39:55;3.45;;;2.40;;
11121;SDS011;5615;49.304;10.576;2024-03-25T12:42:21;2.60;;;2.15;;
11121;SDS011;5615;49.304;10.576;2024-03-25T12:44:48;2.38;;;2.17;;
11121;SDS011;5615;49.304;10.576;2024-03-25T12:47:14;2.40;;;2.20;;
11121;SDS011;5615;49.304;10.576;2024-03-25T12:49:40;2.80;;;2.40;;
11121;SDS011;5615;49.304;10.576;2024-03-25T12:52:06;3.47;;;2.33;;
11121;SDS011;5615;49.304;10.576;2024-03-25T12:54:32;2.40;;;2.20;;
11121;SDS011;5615;49.304;10.576;2024-03-25T12:56:58;10.25;;;4.13;;
11121;SDS011;5615;49.304;10.576;2024-03-25T12:59:24;3.55;;;2.20;;
11121;SDS011;5615;49.304;10.576;2024-03-25T13:01:51;2.50;;;2.25;;
11121;SDS011;5615;49.304;10.576;2024-03-25T13:04:17;2.85;;;2.17;;
11121;SDS011;5615;49.304;10.576;2024-03-25T13:06:43;2.47;;;2.22;;
11121;SDS011;5615;49.304;10.576;2024-03-25T13:09:09;2.92;;;2.50;;
11121;SDS011;5615;49.304;10.576;2024-03-25T13:11:35;2.90;;;2.67;;
11121;SDS011;5615;49.304;10.576;2024-03-25T13:14:01;4.40;;;2.67;;
11121;SDS011;5615;49.304;10.576;2024-03-25T13:16:28;3.80;;;2.88;;
11121;SDS011;5615;49.304;10.576;2024-03-25T13:18:55;2.72;;;2.53;;
11121;SDS011;5615;49.304;10.576;2024-03-25T13:21:21;2.90;;;2.60;;
11121;SDS011;5615;49.304;10.576;2024-03-25T13:23:47;4.97;;;3.10;;
11121;SDS011;5615;49.304;10.576;2024-03-25T13:26:12;4.22;;;3.17;;
11121;SDS011;5615;49.304;10.576;2024-03-25T13:28:38;4.30;;;2.38;;
11121;SDS011;5615;49.304;10.576;2024-03-25T13:31:04;3.03;;;2.70;;
11121;SDS011;5615;49.304;10.576;2024-03-25T13:33:30;3.13;;;2.28;;
11121;SDS011;5615;49.304;10.576;2024-03-25T13:35:57;3.22;;;2.58;;
11121;SDS011;5615;49.304;10.576;2024-03-25T13:38:23;4.53;;;2.60;;
11121;SDS011;5615;49.304;10.576;2024-03-25T13:40:48;3.05;;;2.17;;
11121;SDS011;5615;49.304;10.576;2024-03-25T13:43:14;2.53;;;2.20;;
11121;SDS011;5615;49.304;10.576;2024-03-25T13:45:46;3.03;;;2.40;;
11121;SDS011;5615;49.304;10.576;2024-03-25T13:48:13;2.85;;;2.17;;
11121;SDS011;5615;49.304;10.576;2024-03-25T13:50:40;2.60;;;2.20;;
11121;SDS011;5615;49.304;10.576;2024-03-25T13:53:07;4.95;;;2.78;;
11121;SDS011;5615;49.304;10.576;2024-03-25T13:55:33;3.13;;;2.50;;
11121;SDS011;5615;49.304;10.576;2024-03-25T13:57:59;2.85;;;2.45;;
11121;SDS011;5615;49.304;10.576;2024-03-25T14:00:24;4.03;;;2.58;;
11121;SDS011;5615;49.304;10.576;2024-03-25T14:02:51;3.65;;;2.38;;
11121;SDS011;5615;49.304;10.576;2024-03-25T14:05:17;3.70;;;2.38;;
11121;SDS011;5615;49.304;10.576;2024-03-25T14:07:42;2.90;;;2.28;;
11121;SDS011;5615;49.304;10.576;2024-03-25T14:10:10;5.90;;;2.47;;
11121;SDS011;5615;49.304;10.576;2024-03-25T14:12:35;3.70;;;2.65;;
11121;SDS011;5615;49.304;10.576;2024-03-25T14:15:01;3.47;;;2.08;;
11121;SDS011;5615;49.304;10.576;2024-03-25T14:17:27;3.45;;;2.30;;
11121;SDS011;5615;49.304;10.576;2024-03-25T14:19:53;3.17;;;2.22;;
11121;SDS011;5615;49.304;10.576;2024-03-25T14:22:21;3.15;;;2.67;;
11121;SDS011;5615;49.304;10.576;2024-03-25T14:24:47;3.35;;;2.40;;
11121;SDS011;5615;49.304;10.576;2024-03-25T14:27:14;3.28;;;2.67;;
11121;SDS011;5615;49.304;10.576;2024-03-25T14:29:40;2.65;;;2.30;;
11121;SDS011;5615;49.304;10.576;2024-03-25T14:32:07;2.63;;;2.30;;
11121;SDS011;5615;49.304;10.576;2024-03-25T14:34:33;2.53;;;2.33;;
11121;SDS011;5615;49.304;10.576;2024-03-25T14:36:58;3.10;;;2.30;;
11121;SDS011;5615;49.304;10.576;2024-03-25T14:39:25;3.55;;;2.40;;
11121;SDS011;5615;49.304;10.576;2024-03-25T14:41:51;4.80;;;2.63;;
11121;SDS011;5615;49.304;10.576;2024-03-25T14:44:18;3.20;;;2.50;;
11121;SDS011;5615;49.304;10.576;2024-03-25T14:46:44;3.35;;;2.50;;
11121;SDS011;5615;49.304;10.576;2024-03-25T14:49:10;3.03;;;2.72;;